createdAt,value
2019-05-19T00:01:37.710Z,6.63
2019-05-19T00:04:06.411Z,7.73
2019-05-19T00:06:34.960Z,6.77
2019-05-19T00:09:04.704Z,6.53
2019-05-19T00:11:33.315Z,6.33
2019-05-19T00:14:01.916Z,6.43
2019-05-19T00:16:30.095Z,6.20
2019-05-19T00:18:58.670Z,6.77
2019-05-19T00:21:27.312Z,7.57
2019-05-19T00:23:55.877Z,6.90
2019-05-19T00:26:24.428Z,7.07
2019-05-19T00:28:53.005Z,6.50
2019-05-19T00:31:21.550Z,7.03
2019-05-19T00:33:49.784Z,6.60
2019-05-19T00:36:19.684Z,6.90
2019-05-19T00:38:48.424Z,7.03
2019-05-19T00:41:16.971Z,6.80
2019-05-19T00:43:45.601Z,6.90
2019-05-19T00:46:14.148Z,7.00
2019-05-19T00:48:42.789Z,7.27
2019-05-19T00:51:11.677Z,7.30
2019-05-19T00:53:40.238Z,6.60
2019-05-19T00:56:08.474Z,7.40
2019-05-19T00:58:38.265Z,7.10
2019-05-19T01:01:06.874Z,7.30
2019-05-19T01:03:35.453Z,7.70
2019-05-19T01:06:04.005Z,7.40
2019-05-19T01:08:32.576Z,7.43
2019-05-19T01:11:00.793Z,7.30
2019-05-19T01:13:29.374Z,7.50
2019-05-19T01:15:57.909Z,6.60
2019-05-19T01:18:26.483Z,8.07
2019-05-19T01:20:55.292Z,7.37
2019-05-19T01:23:23.857Z,7.13
2019-05-19T01:25:52.396Z,6.87
2019-05-19T01:28:21.038Z,6.87
2019-05-19T01:30:49.595Z,7.67
2019-05-19T01:33:18.235Z,7.37
2019-05-19T01:35:46.781Z,6.80
2019-05-19T01:38:15.353Z,7.50
2019-05-19T01:40:43.904Z,7.10
2019-05-19T01:43:12.469Z,7.23
2019-05-19T01:45:41.089Z,7.37
2019-05-19T01:48:09.793Z,6.57
2019-05-19T01:50:38.342Z,6.97
2019-05-19T01:53:06.904Z,7.10
2019-05-19T01:55:35.448Z,7.67
2019-05-19T01:58:04.025Z,7.30
2019-05-19T02:00:32.646Z,7.30
2019-05-19T02:03:01.221Z,7.60
2019-05-19T02:05:29.910Z,7.10
2019-05-19T02:07:58.513Z,7.43
2019-05-19T02:10:27.107Z,7.60
2019-05-19T02:12:55.678Z,7.80
2019-05-19T02:15:24.383Z,8.20
2019-05-19T02:17:52.959Z,8.47
2019-05-19T02:20:32.657Z,7.80
2019-05-19T02:22:51.877Z,7.50
2019-05-19T02:25:20.541Z,8.17
2019-05-19T02:27:49.177Z,7.57
2019-05-19T02:30:17.970Z,7.70
2019-05-19T02:32:46.533Z,7.93
2019-05-19T02:35:15.329Z,7.70
2019-05-19T02:37:43.878Z,8.13
2019-05-19T02:40:12.188Z,7.53
2019-05-19T02:42:42.945Z,7.07
2019-05-19T02:45:12.256Z,7.90
2019-05-19T02:47:43.592Z,7.07
2019-05-19T02:50:12.735Z,7.50
2019-05-19T02:52:43.278Z,7.23
2019-05-19T02:55:11.988Z,7.97
2019-05-19T02:57:43.170Z,8.43
2019-05-19T03:00:13.566Z,7.93
2019-05-19T03:02:42.187Z,7.23
2019-05-19T03:05:10.969Z,7.63
2019-05-19T03:07:39.512Z,7.73
2019-05-19T03:10:09.329Z,7.30
2019-05-19T03:12:37.949Z,7.70
2019-05-19T03:15:06.756Z,7.50
2019-05-19T03:17:35.314Z,7.77
2019-05-19T03:20:05.621Z,7.40
2019-05-19T03:22:34.164Z,7.80
2019-05-19T03:25:02.391Z,7.80
2019-05-19T03:27:30.940Z,7.83
2019-05-19T03:30:01.149Z,6.77
2019-05-19T03:32:34.063Z,8.57
2019-05-19T03:35:02.664Z,7.43
2019-05-19T03:37:31.198Z,8.20
2019-05-19T03:39:59.770Z,7.97
2019-05-19T03:42:28.308Z,8.37
2019-05-19T03:44:56.876Z,8.30
2019-05-19T03:47:25.429Z,8.23
2019-05-19T03:49:53.665Z,8.20
2019-05-19T03:52:22.229Z,8.00
2019-05-19T03:54:50.793Z,7.93
2019-05-19T03:57:19.338Z,8.30
2019-05-19T03:59:47.903Z,8.57
2019-05-19T04:02:16.454Z,8.83
2019-05-19T04:04:45.091Z,9.00
2019-05-19T04:07:13.310Z,9.83
2019-05-19T04:09:41.868Z,9.33
2019-05-19T04:12:10.420Z,10.27
2019-05-19T04:14:38.992Z,11.70
2019-05-19T04:17:07.542Z,10.33
2019-05-19T04:19:36.114Z,9.30
2019-05-19T04:22:04.660Z,8.47
2019-05-19T04:24:36.439Z,8.67
2019-05-19T04:27:04.989Z,8.50
2019-05-19T04:29:33.560Z,9.83
2019-05-19T04:32:02.109Z,8.83
2019-05-19T04:34:30.688Z,8.13
2019-05-19T04:36:59.234Z,8.70
2019-05-19T04:39:27.800Z,7.57
2019-05-19T04:41:56.356Z,7.83
2019-05-19T04:44:25.960Z,8.20
2019-05-19T04:46:54.172Z,8.30
2019-05-19T04:49:22.736Z,8.37
2019-05-19T04:52:05.522Z,8.13
2019-05-19T04:54:21.497Z,9.33
2019-05-19T04:56:50.045Z,8.70
2019-05-19T04:59:18.667Z,8.10
2019-05-19T05:01:47.237Z,8.60
2019-05-19T05:04:15.779Z,8.47
2019-05-19T05:06:44.022Z,7.97
2019-05-19T05:09:12.239Z,9.00
2019-05-19T05:11:40.805Z,9.40
2019-05-19T05:14:09.359Z,8.50
2019-05-19T05:16:37.921Z,9.13
2019-05-19T05:19:06.469Z,9.07
2019-05-19T05:21:35.040Z,8.37
2019-05-19T05:24:03.726Z,8.23
2019-05-19T05:26:32.298Z,9.73
2019-05-19T05:29:01.000Z,9.53
2019-05-19T05:31:29.582Z,9.33
2019-05-19T05:33:58.133Z,9.83
2019-05-19T05:36:27.869Z,9.03
2019-05-19T05:38:56.553Z,9.00
2019-05-19T05:41:25.197Z,9.13
2019-05-19T05:43:53.752Z,9.13
2019-05-19T05:46:22.325Z,9.43
2019-05-19T05:48:50.867Z,9.40
2019-05-19T05:51:19.444Z,9.97
2019-05-19T05:53:47.657Z,9.70
2019-05-19T05:56:16.230Z,9.63
2019-05-19T05:58:44.444Z,9.13
2019-05-19T06:01:13.008Z,9.07
2019-05-19T06:03:41.557Z,9.73
2019-05-19T06:06:10.132Z,9.07
2019-05-19T06:08:38.672Z,9.77
2019-05-19T06:11:07.248Z,9.03
2019-05-19T06:13:35.841Z,8.47
2019-05-19T06:16:04.447Z,9.30
2019-05-19T06:18:32.993Z,9.30
2019-05-19T06:21:01.561Z,9.30
2019-05-19T06:23:30.111Z,9.60
2019-05-19T06:25:58.682Z,9.20
2019-05-19T06:28:27.231Z,8.90
2019-05-19T06:30:55.473Z,9.27
2019-05-19T06:33:24.025Z,8.17
2019-05-19T06:35:52.597Z,8.40
2019-05-19T06:38:21.141Z,8.40
2019-05-19T06:40:49.709Z,8.17
2019-05-19T06:43:18.261Z,9.03
2019-05-19T06:45:46.833Z,8.13
2019-05-19T06:48:15.383Z,8.03
2019-05-19T06:50:43.621Z,7.27
2019-05-19T06:53:14.402Z,7.87
2019-05-19T06:55:42.453Z,8.20
2019-05-19T06:58:10.999Z,7.77
2019-05-19T07:00:39.641Z,7.27
2019-05-19T07:03:08.224Z,7.37
2019-05-19T07:05:36.774Z,7.87
2019-05-19T07:08:05.321Z,7.30
2019-05-19T07:10:33.890Z,7.57
2019-05-19T07:13:02.432Z,7.40
2019-05-19T07:15:31.073Z,7.00
2019-05-19T07:17:59.612Z,8.00
2019-05-19T07:20:28.162Z,7.40
2019-05-19T07:22:59.841Z,7.63
2019-05-19T07:25:28.393Z,7.93
2019-05-19T07:27:56.972Z,7.50
2019-05-19T07:30:25.520Z,7.70
2019-05-19T07:32:54.162Z,8.07
2019-05-19T07:35:22.713Z,7.57
2019-05-19T07:37:51.301Z,7.50
2019-05-19T07:40:19.969Z,5.67
2019-05-19T07:42:48.541Z,6.40
2019-05-19T07:45:17.527Z,6.00
2019-05-19T07:47:46.096Z,6.57
2019-05-19T07:50:14.773Z,6.30
2019-05-19T07:52:43.362Z,7.50
2019-05-19T07:55:12.229Z,6.67
2019-05-19T07:57:40.793Z,6.50
2019-05-19T08:00:09.626Z,5.93
2019-05-19T08:02:38.251Z,6.53
2019-05-19T08:05:06.992Z,6.50
2019-05-19T08:07:35.653Z,6.30
2019-05-19T08:10:05.565Z,5.23
2019-05-19T08:12:34.498Z,6.67
2019-05-19T08:15:03.933Z,7.00
2019-05-19T08:17:32.163Z,6.10
2019-05-19T08:20:00.706Z,5.77
2019-05-19T08:22:29.281Z,5.97
2019-05-19T08:24:57.817Z,5.60
2019-05-19T08:27:26.457Z,5.97
2019-05-19T08:29:55.030Z,5.30
2019-05-19T08:32:23.584Z,5.10
2019-05-19T08:34:52.122Z,6.13
2019-05-19T08:37:20.694Z,5.80
2019-05-19T08:39:49.242Z,5.50
2019-05-19T08:42:17.806Z,5.90
2019-05-19T08:44:46.343Z,5.20
2019-05-19T08:47:14.586Z,4.83
2019-05-19T08:49:43.129Z,4.73
2019-05-19T08:52:11.756Z,4.83
2019-05-19T08:54:40.295Z,4.13
2019-05-19T08:57:08.861Z,4.60
2019-05-19T08:59:37.415Z,4.60
2019-05-19T09:02:06.051Z,5.50
2019-05-19T09:04:34.597Z,5.47
2019-05-19T09:07:03.165Z,5.93
2019-05-19T09:09:31.717Z,9.67
2019-05-19T09:12:00.308Z,6.30
2019-05-19T09:14:28.827Z,4.47
2019-05-19T09:16:57.060Z,5.43
2019-05-19T09:19:25.676Z,4.70
2019-05-19T09:21:54.243Z,4.60
2019-05-19T09:24:30.414Z,4.78
2019-05-19T09:26:53.077Z,4.20
2019-05-19T09:29:21.649Z,4.53
2019-05-19T09:31:50.185Z,4.70
2019-05-19T09:34:18.730Z,4.50
2019-05-19T09:36:47.292Z,4.80
2019-05-19T09:39:15.863Z,4.80
2019-05-19T09:41:44.424Z,4.50
2019-05-19T09:44:12.973Z,5.07
2019-05-19T09:46:41.540Z,4.50
2019-05-19T09:49:28.178Z,4.73
2019-05-19T09:51:56.735Z,4.53
2019-05-19T09:54:24.965Z,4.50
2019-05-19T09:56:53.521Z,4.90
2019-05-19T09:59:22.064Z,4.87
2019-05-19T10:01:50.628Z,5.50
2019-05-19T10:04:19.306Z,5.50
2019-05-19T10:06:48.069Z,4.97
2019-05-19T10:09:16.946Z,4.80
2019-05-19T10:12:02.859Z,4.50
2019-05-19T10:14:31.478Z,5.07
2019-05-19T10:17:01.273Z,4.90
2019-05-19T10:19:30.189Z,4.47
2019-05-19T10:21:58.831Z,4.90
2019-05-19T10:24:27.368Z,4.63
2019-05-19T10:26:56.005Z,4.97
2019-05-19T10:29:24.550Z,4.90
2019-05-19T10:31:54.470Z,4.67
2019-05-19T10:34:23.130Z,5.13
2019-05-19T10:36:51.803Z,5.20
2019-05-19T10:39:20.324Z,5.03
2019-05-19T10:41:48.936Z,4.73
2019-05-19T10:44:17.501Z,4.50
2019-05-19T10:46:46.621Z,4.70
2019-05-19T10:49:15.187Z,5.03
2019-05-19T10:51:44.469Z,4.73
2019-05-19T10:54:13.103Z,4.80
2019-05-19T10:56:41.718Z,4.43
2019-05-19T10:59:10.354Z,4.40
2019-05-19T11:01:38.901Z,3.97
2019-05-19T11:04:07.465Z,4.33
2019-05-19T11:06:36.076Z,4.70
2019-05-19T11:09:07.282Z,4.03
2019-05-19T11:11:36.173Z,4.30
2019-05-19T11:14:04.903Z,4.20
2019-05-19T11:16:33.534Z,4.63
2019-05-19T11:19:02.103Z,4.00
2019-05-19T11:21:30.641Z,4.53
2019-05-19T11:23:59.208Z,4.50
2019-05-19T11:26:27.758Z,4.20
2019-05-19T11:28:56.326Z,4.07
2019-05-19T11:31:24.937Z,4.20
2019-05-19T11:33:53.514Z,4.20
2019-05-19T11:36:22.053Z,4.07
2019-05-19T11:38:50.620Z,4.10
2019-05-19T11:41:19.160Z,3.77
2019-05-19T11:43:47.733Z,3.67
2019-05-19T11:46:16.263Z,4.07
2019-05-19T11:48:44.833Z,3.83
2019-05-19T11:51:13.376Z,3.97
2019-05-19T11:53:41.946Z,4.93
2019-05-19T11:56:11.461Z,5.20
2019-05-19T11:58:40.453Z,5.30
2019-05-19T12:01:09.031Z,4.77
2019-05-19T12:03:37.611Z,5.03
2019-05-19T12:06:06.153Z,5.10
2019-05-19T12:08:34.728Z,4.73
2019-05-19T12:11:03.277Z,5.07
2019-05-19T12:13:34.821Z,5.30
2019-05-19T12:16:02.034Z,5.27
2019-05-19T12:18:30.596Z,5.07
2019-05-19T12:20:59.140Z,4.80
2019-05-19T12:23:27.718Z,4.87
2019-05-19T12:25:56.333Z,4.50
2019-05-19T12:28:24.966Z,4.77
2019-05-19T12:30:53.517Z,4.33
2019-05-19T12:33:22.101Z,4.57
2019-05-19T12:35:50.718Z,4.30
2019-05-19T12:38:19.257Z,4.03
2019-05-19T12:40:47.828Z,3.73
2019-05-19T12:43:16.369Z,3.17
2019-05-19T12:45:44.979Z,3.07
2019-05-19T12:48:13.569Z,3.60
2019-05-19T12:50:42.143Z,3.70
2019-05-19T12:53:10.756Z,3.80
2019-05-19T12:55:39.456Z,4.20
2019-05-19T12:58:08.001Z,3.40
2019-05-19T13:00:36.631Z,3.50
2019-05-19T13:03:05.252Z,3.47
2019-05-19T13:05:33.872Z,3.40
2019-05-19T13:08:02.447Z,3.40
2019-05-19T13:10:31.057Z,3.33
2019-05-19T13:12:59.697Z,3.63
2019-05-19T13:15:28.304Z,3.30
2019-05-19T13:17:56.854Z,3.33
2019-05-19T13:20:25.548Z,3.50
2019-05-19T13:22:54.088Z,4.07
2019-05-19T13:25:22.788Z,3.40
2019-05-19T13:27:51.328Z,3.63
2019-05-19T13:30:20.036Z,3.77
2019-05-19T13:32:48.683Z,4.00
2019-05-19T13:35:17.390Z,3.93
2019-05-19T13:37:45.930Z,4.10
2019-05-19T13:40:14.497Z,3.80
2019-05-19T13:42:43.041Z,3.23
2019-05-19T13:45:11.935Z,3.60
2019-05-19T13:47:40.486Z,4.13
2019-05-19T13:50:09.587Z,3.50
2019-05-19T13:52:38.389Z,3.70
2019-05-19T13:55:08.881Z,3.83
2019-05-19T13:57:37.421Z,3.90
2019-05-19T14:00:06.592Z,3.43
2019-05-19T14:02:35.204Z,3.90
2019-05-19T14:05:04.236Z,3.57
2019-05-19T14:07:32.777Z,3.97
2019-05-19T14:10:01.345Z,3.60
2019-05-19T14:12:29.889Z,3.47
2019-05-19T14:14:58.512Z,3.50
2019-05-19T14:17:27.181Z,3.40
2019-05-19T14:19:55.744Z,3.47
2019-05-19T14:22:24.285Z,3.10
2019-05-19T14:24:52.861Z,3.87
2019-05-19T14:27:29.595Z,3.83
2019-05-19T14:29:51.623Z,3.37
2019-05-19T14:32:20.244Z,3.40
2019-05-19T14:34:49.408Z,3.70
2019-05-19T14:37:17.949Z,3.57
2019-05-19T14:39:46.554Z,3.33
2019-05-19T14:42:16.768Z,3.23
2019-05-19T14:44:45.322Z,3.30
2019-05-19T14:47:13.888Z,3.40
2019-05-19T14:49:45.539Z,3.30
2019-05-19T14:52:12.646Z,2.50
2019-05-19T14:54:41.188Z,3.07
2019-05-19T14:57:09.761Z,3.23
2019-05-19T14:59:38.313Z,2.90
2019-05-19T15:02:06.558Z,3.00
2019-05-19T15:04:35.101Z,2.80
2019-05-19T15:07:03.675Z,2.57
2019-05-19T15:09:32.219Z,2.90
2019-05-19T15:12:00.797Z,2.80
2019-05-19T15:14:29.331Z,3.30
2019-05-19T15:16:57.896Z,3.17
2019-05-19T15:19:26.183Z,3.30
2019-05-19T15:21:54.460Z,3.40
2019-05-19T15:24:23.073Z,3.30
2019-05-19T15:26:51.635Z,3.17
2019-05-19T15:29:20.187Z,3.40
2019-05-19T15:31:48.752Z,3.50
2019-05-19T15:34:16.960Z,3.43
2019-05-19T15:36:45.524Z,3.90
2019-05-19T15:39:14.658Z,3.97
2019-05-19T15:41:43.400Z,4.30
2019-05-19T15:44:11.944Z,4.27
2019-05-19T15:46:40.515Z,4.37
2019-05-19T15:49:09.120Z,4.00
2019-05-19T15:51:38.115Z,3.73
2019-05-19T15:54:06.724Z,3.87
2019-05-19T15:56:35.301Z,3.77
2019-05-19T15:59:03.575Z,3.47
2019-05-19T16:01:32.151Z,4.33
2019-05-19T16:04:00.685Z,4.43
2019-05-19T16:06:29.321Z,4.00
2019-05-19T16:08:57.879Z,4.40
2019-05-19T16:11:26.446Z,4.67
2019-05-19T16:13:54.986Z,4.60
2019-05-19T16:16:23.637Z,4.87
2019-05-19T16:18:53.336Z,4.90
2019-05-19T16:21:22.045Z,5.33
2019-05-19T16:23:50.656Z,5.60
2019-05-19T16:26:19.237Z,5.10
2019-05-19T16:28:47.775Z,5.87
2019-05-19T16:31:16.345Z,5.10
2019-05-19T16:33:44.881Z,5.10
2019-05-19T16:36:13.473Z,4.40
2019-05-19T16:38:42.027Z,4.00
2019-05-19T16:41:10.564Z,4.07
2019-05-19T16:43:39.127Z,3.87
2019-05-19T16:46:07.675Z,4.57
2019-05-19T16:48:35.903Z,4.87
2019-05-19T16:51:04.189Z,4.87
2019-05-19T16:53:32.758Z,4.80
2019-05-19T16:56:01.311Z,4.43
2019-05-19T16:58:37.490Z,4.53
2019-05-19T17:01:00.078Z,4.23
2019-05-19T17:03:28.649Z,4.07
2019-05-19T17:05:57.269Z,3.70
2019-05-19T17:08:25.852Z,3.57
2019-05-19T17:10:54.397Z,2.80
2019-05-19T17:13:22.965Z,2.90
2019-05-19T17:15:51.657Z,2.50
2019-05-19T17:18:20.220Z,2.80
2019-05-19T17:20:48.776Z,2.40
2019-05-19T17:23:17.439Z,2.27
2019-05-19T17:25:46.258Z,2.60
2019-05-19T17:28:15.192Z,2.80
2019-05-19T17:30:44.121Z,2.53
2019-05-19T17:33:16.918Z,2.67
2019-05-19T17:35:45.445Z,2.83
2019-05-19T17:38:14.011Z,2.70
2019-05-19T17:40:42.551Z,2.83
2019-05-19T17:43:12.565Z,2.97
2019-05-19T17:45:58.594Z,2.63
2019-05-19T17:48:58.794Z,3.53
2019-05-19T17:51:27.413Z,2.53
2019-05-19T17:53:55.986Z,2.50
2019-05-19T17:56:24.877Z,2.57
2019-05-19T17:58:54.431Z,2.43
2019-05-19T18:01:23.002Z,2.60
2019-05-19T18:03:51.719Z,2.87
2019-05-19T18:06:19.921Z,2.70
2019-05-19T18:08:48.480Z,2.40
2019-05-19T18:11:16.697Z,2.40
2019-05-19T18:13:45.258Z,2.80
2019-05-19T18:16:13.864Z,2.50
2019-05-19T18:18:42.437Z,2.97
2019-05-19T18:21:11.061Z,3.17
2019-05-19T18:23:39.695Z,2.77
2019-05-19T18:26:08.250Z,3.50
2019-05-19T18:28:36.872Z,3.23
2019-05-19T18:31:05.487Z,3.00
2019-05-19T18:33:34.052Z,2.40
2019-05-19T18:36:02.596Z,2.80
2019-05-19T18:38:31.170Z,3.00
2019-05-19T18:40:59.712Z,3.47
2019-05-19T18:43:28.312Z,3.47
2019-05-19T18:45:56.826Z,3.20
2019-05-19T18:48:25.380Z,3.03
2019-05-19T18:50:53.955Z,12.60
2019-05-19T18:53:22.546Z,5.57
2019-05-19T18:55:50.753Z,3.40
2019-05-19T18:58:19.343Z,3.20
2019-05-19T19:00:48.041Z,3.27
2019-05-19T19:03:17.628Z,3.00
2019-05-19T19:05:46.255Z,3.37
2019-05-19T19:08:14.794Z,4.20
2019-05-19T19:10:43.376Z,3.50
2019-05-19T19:13:11.985Z,3.93
2019-05-19T19:15:41.145Z,3.60
2019-05-19T19:18:09.690Z,6.03
2019-05-19T19:20:38.333Z,4.67
2019-05-19T19:23:06.877Z,4.40
2019-05-19T19:25:35.116Z,3.87
2019-05-19T19:28:03.800Z,4.10
2019-05-19T19:30:32.369Z,4.33
2019-05-19T19:33:00.922Z,4.67
2019-05-19T19:35:38.268Z,5.27
2019-05-19T19:37:59.766Z,4.77
2019-05-19T19:40:28.777Z,3.63
2019-05-19T19:42:58.364Z,3.73
2019-05-19T19:45:26.929Z,3.37
2019-05-19T19:47:55.486Z,4.13
2019-05-19T19:50:24.197Z,4.17
2019-05-19T19:52:52.815Z,4.30
2019-05-19T19:55:21.444Z,4.13
2019-05-19T19:57:50.202Z,4.67
2019-05-19T20:00:30.270Z,5.10
2019-05-19T20:02:58.824Z,4.47
2019-05-19T20:05:27.405Z,3.97
2019-05-19T20:07:55.998Z,4.10
2019-05-19T20:10:24.677Z,3.80
2019-05-19T20:12:53.250Z,3.70
2019-05-19T20:15:21.826Z,4.17
2019-05-19T20:17:50.377Z,4.00
2019-05-19T20:20:19.030Z,4.30
2019-05-19T20:22:47.615Z,3.60
2019-05-19T20:25:16.225Z,3.80
2019-05-19T20:27:44.775Z,4.00
2019-05-19T20:30:14.480Z,3.87
2019-05-19T20:32:43.026Z,3.40
2019-05-19T20:35:11.729Z,4.00
2019-05-19T20:37:42.518Z,3.90
2019-05-19T20:40:11.352Z,3.80
2019-05-19T20:42:39.912Z,3.70
2019-05-19T20:45:08.222Z,3.93
2019-05-19T20:47:36.771Z,3.93
2019-05-19T20:50:06.843Z,4.07
2019-05-19T20:52:35.432Z,4.70
2019-05-19T20:55:05.521Z,5.90
2019-05-19T20:57:34.111Z,4.90
2019-05-19T21:00:02.654Z,4.80
2019-05-19T21:02:50.868Z,4.47
2019-05-19T21:05:19.417Z,3.93
2019-05-19T21:07:48.167Z,4.03
2019-05-19T21:10:16.777Z,4.00
2019-05-19T21:12:45.359Z,3.87
2019-05-19T21:15:14.349Z,3.67
2019-05-19T21:17:42.930Z,4.07
2019-05-19T21:20:11.561Z,3.73
2019-05-19T21:22:40.189Z,3.80
2019-05-19T21:25:09.191Z,3.90
2019-05-19T21:27:37.836Z,3.47
2019-05-19T21:30:08.293Z,3.50
2019-05-19T21:32:36.868Z,3.57
2019-05-19T21:35:06.764Z,3.80
2019-05-19T21:37:35.408Z,3.03
2019-05-19T21:40:06.369Z,3.43
2019-05-19T21:42:35.007Z,3.17
2019-05-19T21:45:03.936Z,3.17
2019-05-19T21:47:32.515Z,3.80
2019-05-19T21:50:01.062Z,3.70
2019-05-19T21:52:29.301Z,3.80
2019-05-19T21:54:58.368Z,3.90
2019-05-19T21:57:26.898Z,4.13
2019-05-19T21:59:55.463Z,4.07
2019-05-19T22:02:24.226Z,4.50
2019-05-19T22:04:52.909Z,4.03
2019-05-19T22:07:25.911Z,4.13
2019-05-19T22:09:54.467Z,3.47
2019-05-19T22:12:23.046Z,4.10
2019-05-19T22:14:51.596Z,4.67
